Time;durP1;ratioP1;P1;durP2;ratioP2;P2;SDS_P1;SDS_P2;PMS_P1;PMS_P2;Temp;Humidity;BMP_temperature;BMP_pressure;BME280_temperature;BME280_humidity;BME280_pressure;Samples;Min_cycle;Max_cycle;Signal;HPM_P1;HPM_P2
2022/07/13 00:01:03;;;;;;;1.87;0.93;;;12.50;63.70;;;;;;5062020;28;20176;-74
2022/07/13 00:03:30;;;;;;;2.47;1.10;;;12.50;63.90;;;;;;5070761;28;20182;-76
2022/07/13 00:05:58;;;;;;;1.83;1.00;;;12.40;63.90;;;;;;5061052;28;20212;-74
2022/07/13 00:08:25;;;;;;;1.30;1.20;;;12.20;63.80;;;;;;5064679;28;20194;-77
2022/07/13 00:10:52;;;;;;;1.87;1.10;;;12.30;64.40;;;;;;5068565;28;20198;-77
2022/07/13 00:13:20;;;;;;;1.07;0.93;;;12.60;63.80;;;;;;5070495;28;20187;-73
2022/07/13 00:15:48;;;;;;;1.10;1.00;;;12.70;63.70;;;;;;5073458;28;20514;-81
2022/07/13 00:18:15;;;;;;;2.13;1.10;;;12.80;63.30;;;;;;5071121;28;20176;-78
2022/07/13 00:20:45;;;;;;;1.07;0.90;;;12.90;62.10;;;;;;5068635;28;20633;-74
2022/07/13 00:23:12;;;;;;;1.53;1.00;;;13.00;63.10;;;;;;5072124;28;20187;-74
2022/07/13 00:25:40;;;;;;;1.77;1.00;;;13.00;62.10;;;;;;5064243;28;20179;-82
2022/07/13 00:28:07;;;;;;;2.30;1.10;;;13.00;62.70;;;;;;5070830;28;20215;-75
2022/07/13 00:30:34;;;;;;;1.10;1.00;;;13.10;62.10;;;;;;5069797;28;20218;-73
2022/07/13 00:33:03;;;;;;;2.10;1.07;;;13.10;61.90;;;;;;5071890;28;20186;-84
2022/07/13 00:35:31;;;;;;;3.20;1.20;;;13.10;62.20;;;;;;5069458;28;20708;-78
2022/07/13 00:37:58;;;;;;;3.83;1.30;;;13.20;62.00;;;;;;5067616;28;20168;-82
2022/07/13 00:40:26;;;;;;;2.10;1.20;;;13.30;61.80;;;;;;5066883;28;20278;-73
2022/07/13 00:42:53;;;;;;;1.60;1.03;;;13.50;62.10;;;;;;5069127;28;20586;-75
2022/07/13 00:45:21;;;;;;;2.27;1.10;;;13.50;61.20;;;;;;5070186;28;20195;-80
2022/07/13 00:47:52;;;;;;;2.00;0.97;;;13.60;60.60;;;;;;5070735;28;20190;-79
2022/07/13 00:50:19;;;;;;;2.77;1.20;;;13.70;61.30;;;;;;5071077;28;20666;-81
2022/07/13 00:52:48;;;;;;;1.20;1.00;;;13.70;61.40;;;;;;5065647;28;20706;-80
2022/07/13 00:55:17;;;;;;;2.50;1.13;;;13.80;61.20;;;;;;5069209;28;20837;-74
2022/07/13 00:57:44;;;;;;;1.90;1.13;;;13.80;60.40;;;;;;5066384;28;20183;-73
2022/07/13 01:00:14;;;;;;;1.70;1.27;;;13.80;60.20;;;;;;5066513;28;20251;-83
2022/07/13 01:02:45;;;;;;;2.40;1.27;;;14.00;60.30;;;;;;5067110;28;20228;-81
2022/07/13 01:05:14;;;;;;;1.00;1.00;;;14.30;60.40;;;;;;5067626;28;20183;-87
2022/07/13 01:07:42;;;;;;;3.13;1.20;;;14.40;59.50;;;;;;5063666;28;20180;-82
2022/07/13 01:10:11;;;;;;;3.33;1.33;;;14.30;59.70;;;;;;5065397;28;20187;-74
2022/07/13 01:12:40;;;;;;;2.10;1.33;;;14.60;59.10;;;;;;5070905;28;20183;-78
2022/07/13 01:15:09;;;;;;;1.10;1.00;;;14.60;58.70;;;;;;5073328;28;20201;-80
2022/07/13 01:17:37;;;;;;;1.93;1.10;;;14.80;58.80;;;;;;5069522;28;20191;-79
2022/07/13 01:20:07;;;;;;;3.47;1.07;;;14.50;58.80;;;;;;5068006;28;20310;-86
2022/07/13 01:22:44;;;;;;;1.33;1.00;;;14.50;60.00;;;;;;5069609;28;20547;-84
2022/07/13 01:25:14;;;;;;;3.70;1.10;;;14.40;59.60;;;;;;5062912;28;20183;-84
2022/07/13 01:27:42;;;;;;;1.30;1.20;;;14.20;58.50;;;;;;5068104;28;20223;-86
2022/07/13 01:30:10;;;;;;;3.17;1.20;;;14.20;59.10;;;;;;5057331;28;20176;-83
2022/07/13 01:33:03;;;;;;;5.90;1.57;;;14.20;59.20;;;;;;5060368;28;20199;-83
2022/07/13 01:35:31;;;;;;;3.83;1.63;;;14.20;58.80;;;;;;5053315;28;20326;-82
2022/07/13 01:37:58;;;;;;;2.67;1.07;;;14.20;59.20;;;;;;5057126;28;20185;-76
2022/07/13 01:40:26;;;;;;;2.93;1.00;;;14.20;59.60;;;;;;5055573;28;20241;-73
2022/07/13 01:42:54;;;;;;;3.50;0.97;;;14.00;60.10;;;;;;5093430;28;20163;-80
2022/07/13 01:45:24;;;;;;;2.27;1.07;;;14.10;59.70;;;;;;5068983;28;20187;-81
2022/07/13 01:47:53;;;;;;;1.73;1.17;;;14.70;58.60;;;;;;5052826;28;20168;-84
2022/07/13 01:50:23;;;;;;;4.23;1.10;;;15.30;56.10;;;;;;5052695;28;20204;-79
2022/07/13 01:52:51;;;;;;;5.07;1.23;;;15.30;55.30;;;;;;5053073;28;20213;-87
2022/07/13 01:55:19;;;;;;;6.40;1.50;;;15.00;55.60;;;;;;5056000;28;20182;-77
2022/07/13 01:57:47;;;;;;;2.80;1.40;;;14.80;55.90;;;;;;5055352;28;20261;-89
2022/07/13 02:00:17;;;;;;;2.63;1.37;;;14.70;56.90;;;;;;5070731;28;20237;-84
2022/07/13 02:02:45;;;;;;;3.10;1.37;;;14.60;57.70;;;;;;5057269;28;20226;-88
2022/07/13 02:05:13;;;;;;;2.43;1.17;;;14.60;56.90;;;;;;5059011;28;20191;-79
2022/07/13 02:07:41;;;;;;;4.63;1.10;;;14.70;56.50;;;;;;5054795;28;20183;-84
2022/07/13 02:10:11;;;;;;;0.83;0.83;;;14.70;56.10;;;;;;5051688;28;20570;-78
2022/07/13 02:12:39;;;;;;;3.17;1.23;;;14.80;56.70;;;;;;5053568;28;20188;-78
2022/07/13 02:15:11;;;;;;;4.43;1.47;;;14.70;57.20;;;;;;5056692;28;20202;-89
2022/07/13 02:17:39;;;;;;;3.33;1.30;;;14.70;58.00;;;;;;5066940;28;20226;-73
2022/07/13 02:20:10;;;;;;;3.23;1.60;;;14.70;58.70;;;;;;5056951;28;20180;-77
2022/07/13 02:22:44;;;;;;;3.43;1.53;;;14.40;59.20;;;;;;5053573;28;20180;-77
2022/07/13 02:25:13;;;;;;;3.20;1.37;;;14.40;60.00;;;;;;5056505;28;20187;-76
2022/07/13 02:27:42;;;;;;;6.40;2.17;;;14.20;60.60;;;;;;5054188;28;20227;-84
2022/07/13 02:30:11;;;;;;;4.57;1.67;;;14.40;60.70;;;;;;5057424;28;20187;-77
2022/07/13 02:32:39;;;;;;;5.57;1.80;;;14.50;60.50;;;;;;5063855;28;20180;-79
2022/07/13 02:35:07;;;;;;;3.30;1.80;;;14.70;60.40;;;;;;5064234;28;20264;-82
2022/07/13 02:37:34;;;;;;;3.73;1.30;;;15.00;59.70;;;;;;5066223;28;20183;-80
2022/07/13 02:40:03;;;;;;;4.37;1.50;;;15.00;57.60;;;;;;5056474;28;20195;-77
2022/07/13 02:42:33;;;;;;;5.10;2.13;;;15.20;57.40;;;;;;5055948;28;20181;-74
2022/07/13 02:45:01;;;;;;;2.90;1.40;;;15.00;56.60;;;;;;5057811;28;20663;-78
2022/07/13 02:47:55;;;;;;;2.77;1.43;;;15.00;57.30;;;;;;5065426;28;20576;-78
2022/07/13 02:50:23;;;;;;;3.13;1.50;;;15.50;56.80;;;;;;5077952;28;20582;-89
2022/07/13 02:52:52;;;;;;;6.00;1.30;;;15.80;55.30;;;;;;5068349;28;20219;-79
2022/07/13 02:55:23;;;;;;;5.03;1.63;;;15.60;55.30;;;;;;5075709;28;20637;-77
2022/07/13 02:57:53;;;;;;;2.70;1.53;;;15.70;55.50;;;;;;5078896;28;20598;-80
2022/07/13 03:00:21;;;;;;;2.77;1.30;;;15.70;55.50;;;;;;5061594;28;20205;-75
2022/07/13 03:03:05;;;;;;;2.53;1.20;;;15.50;55.70;;;;;;5065636;28;20173;-79
2022/07/13 03:05:33;;;;;;;3.33;1.60;;;15.20;55.80;;;;;;5078241;28;20592;-80
2022/07/13 03:08:03;;;;;;;5.47;1.60;;;15.20;56.50;;;;;;5077634;28;20175;-83
2022/07/13 03:10:31;;;;;;;1.97;1.17;;;15.10;57.10;;;;;;5062043;28;20196;-81
2022/07/13 03:13:02;;;;;;;1.23;1.07;;;15.10;56.80;;;;;;5072056;28;20666;-80
2022/07/13 03:15:30;;;;;;;3.43;1.57;;;14.90;55.40;;;;;;5069656;28;20233;-76
2022/07/13 03:17:57;;;;;;;1.80;1.10;;;14.80;57.20;;;;;;5071634;28;20171;-80
2022/07/13 03:20:25;;;;;;;3.00;1.23;;;14.80;56.30;;;;;;5074499;28;20185;-78
2022/07/13 03:22:53;;;;;;;3.33;1.30;;;14.60;56.30;;;;;;5075784;28;20210;-78
2022/07/13 03:25:21;;;;;;;1.63;1.00;;;14.60;56.70;;;;;;5072975;28;20607;-76
2022/07/13 03:27:48;;;;;;;2.53;1.20;;;14.80;54.10;;;;;;5067460;28;20242;-83
2022/07/13 03:30:16;;;;;;;1.53;1.07;;;14.90;53.50;;;;;;5075258;28;20262;-87
2022/07/13 03:32:48;;;;;;;3.23;1.40;;;15.00;54.30;;;;;;5073131;28;20195;-80
2022/07/13 03:35:15;;;;;;;2.47;1.00;;;15.00;53.60;;;;;;5069165;28;20179;-80
2022/07/13 03:37:43;;;;;;;2.07;1.00;;;14.90;52.70;;;;;;5074426;28;20266;-79
2022/07/13 03:40:11;;;;;;;3.80;1.27;;;14.80;53.60;;;;;;5068623;28;20184;-82
2022/07/13 03:42:39;;;;;;;2.50;1.80;;;14.90;54.20;;;;;;5071899;28;20333;-75
2022/07/13 03:45:07;;;;;;;1.83;1.30;;;14.90;54.50;;;;;;5067346;28;20237;-80
2022/07/13 03:47:34;;;;;;;1.53;1.30;;;15.10;55.10;;;;;;5072885;28;20570;-84
2022/07/13 03:50:02;;;;;;;1.10;1.00;;;15.20;54.40;;;;;;5069854;28;20178;-80
2022/07/13 03:52:30;;;;;;;1.27;1.10;;;15.30;53.70;;;;;;5061772;28;20641;-77
2022/07/13 03:55:25;;;;;;;1.20;1.10;;;15.70;53.00;;;;;;5074939;28;20237;-77
2022/07/13 03:58:18;;;;;;;2.70;0.93;;;15.80;51.30;;;;;;5066870;28;20198;-81
2022/07/13 04:00:49;;;;;;;1.83;1.03;;;15.60;51.90;;;;;;5073986;28;20524;-78
2022/07/13 04:03:19;;;;;;;2.20;1.20;;;15.50;52.10;;;;;;5071315;28;20194;-83
2022/07/13 04:05:47;;;;;;;1.23;1.10;;;15.20;53.50;;;;;;5072256;28;20179;-80
2022/07/13 04:08:18;;;;;;;1.40;1.10;;;15.00;53.90;;;;;;5073881;28;20634;-78
2022/07/13 04:10:52;;;;;;;1.37;1.10;;;14.80;54.40;;;;;;5069959;28;20252;-81
2022/07/13 04:13:20;;;;;;;1.30;1.00;;;14.70;55.20;;;;;;5070626;28;20673;-83
2022/07/13 04:15:48;;;;;;;1.10;1.00;;;14.50;55.10;;;;;;5067922;28;20312;-78
2022/07/13 04:18:15;;;;;;;1.20;1.10;;;14.40;55.20;;;;;;5071592;28;20187;-74
2022/07/13 04:20:43;;;;;;;1.03;1.00;;;14.40;55.90;;;;;;5073814;28;20664;-75
2022/07/13 04:23:10;;;;;;;1.20;1.10;;;14.50;56.00;;;;;;5069758;28;20533;-74
2022/07/13 04:25:38;;;;;;;1.63;1.10;;;14.60;55.90;;;;;;5068548;28;20179;-76
2022/07/13 04:28:05;;;;;;;3.07;1.77;;;14.60;55.70;;;;;;5065911;28;20211;-73
2022/07/13 04:30:32;;;;;;;1.97;1.00;;;14.70;55.30;;;;;;5071421;28;20220;-75
2022/07/13 04:33:00;;;;;;;2.20;1.20;;;14.70;55.50;;;;;;5072038;28;20175;-75
2022/07/13 04:35:28;;;;;;;3.13;1.30;;;14.60;55.10;;;;;;5071606;28;20564;-74
2022/07/13 04:37:55;;;;;;;1.10;1.00;;;14.70;55.30;;;;;;5073261;28;20183;-74
2022/07/13 04:40:23;;;;;;;1.53;1.10;;;14.80;54.80;;;;;;5069702;28;20205;-80
2022/07/13 04:42:51;;;;;;;1.73;1.20;;;14.90;54.40;;;;;;5070367;28;20512;-76
2022/07/13 04:45:19;;;;;;;4.63;1.20;;;15.00;54.30;;;;;;5068188;28;20202;-72
2022/07/13 04:47:46;;;;;;;1.53;1.03;;;15.00;54.90;;;;;;5068620;28;20179;-75
2022/07/13 04:50:14;;;;;;;1.23;1.10;;;14.90;54.50;;;;;;5068107;28;20184;-80
2022/07/13 04:52:41;;;;;;;1.27;1.13;;;15.00;54.40;;;;;;5069286;28;20220;-73
2022/07/13 04:55:09;;;;;;;3.17;1.17;;;14.80;54.50;;;;;;5070474;28;20187;-75
2022/07/13 04:57:37;;;;;;;1.40;1.30;;;14.70;55.00;;;;;;5066824;28;20220;-79
2022/07/13 05:00:06;;;;;;;1.20;1.07;;;14.60;55.40;;;;;;5072648;28;20229;-79
2022/07/13 05:02:34;;;;;;;2.20;1.10;;;14.40;54.80;;;;;;5070855;28;20175;-79
2022/07/13 05:05:01;;;;;;;1.40;1.20;;;14.30;55.60;;;;;;5071392;28;20241;-78
2022/07/13 05:07:29;;;;;;;1.33;1.23;;;14.30;55.90;;;;;;5064348;28;20186;-77
2022/07/13 05:09:57;;;;;;;1.73;1.10;;;14.20;56.20;;;;;;5066445;28;20190;-78
2022/07/13 05:12:24;;;;;;;1.20;1.00;;;14.20;56.70;;;;;;5071076;28;20215;-83
2022/07/13 05:14:52;;;;;;;1.30;1.20;;;14.20;57.40;;;;;;5062841;28;20233;-79
2022/07/13 05:17:22;;;;;;;4.33;1.30;;;14.10;57.10;;;;;;5065334;28;20179;-83
2022/07/13 05:19:49;;;;;;;2.00;1.43;;;14.20;56.90;;;;;;5068837;28;20171;-75
2022/07/13 05:22:17;;;;;;;1.73;1.60;;;14.20;57.30;;;;;;5070227;28;20256;-80
2022/07/13 05:24:44;;;;;;;2.00;1.10;;;14.20;57.30;;;;;;5064162;28;20297;-77
2022/07/13 05:27:12;;;;;;;1.53;1.20;;;14.20;57.30;;;;;;5058570;28;20220;-84
2022/07/13 05:29:39;;;;;;;4.20;1.57;;;14.20;57.40;;;;;;5068708;28;20203;-79
2022/07/13 05:32:07;;;;;;;1.33;1.23;;;14.20;57.40;;;;;;5068831;28;20223;-83
2022/07/13 05:34:34;;;;;;;1.33;1.23;;;14.20;57.80;;;;;;5057036;28;20174;-81
2022/07/13 05:37:02;;;;;;;3.40;1.33;;;14.20;57.20;;;;;;5066751;28;20646;-75
2022/07/13 05:39:29;;;;;;;2.63;1.10;;;14.20;57.20;;;;;;5054145;28;20653;-90
2022/07/13 05:41:58;;;;;;;1.47;1.13;;;14.20;56.80;;;;;;5054809;28;20202;-85
2022/07/13 05:44:25;;;;;;;1.90;1.40;;;14.20;56.80;;;;;;5060029;28;20183;-88
2022/07/13 05:46:54;;;;;;;2.57;1.50;;;14.10;57.40;;;;;;5056870;28;20693;-86
2022/07/13 05:49:21;;;;;;;1.37;1.17;;;14.10;56.90;;;;;;5068224;28;20190;-84
2022/07/13 05:51:49;;;;;;;2.30;1.10;;;14.10;56.90;;;;;;5054647;28;20216;-85
2022/07/13 05:54:16;;;;;;;1.33;1.10;;;14.00;56.50;;;;;;5055558;28;20210;-86
2022/07/13 05:56:44;;;;;;;1.30;1.00;;;14.00;57.00;;;;;;5063046;28;20171;-83
2022/07/13 05:59:11;;;;;;;1.67;1.10;;;13.90;56.10;;;;;;5068080;28;20185;-88
2022/07/13 06:01:39;;;;;;;2.03;1.30;;;13.80;56.90;;;;;;5064547;28;20180;-76
2022/07/13 06:04:06;;;;;;;1.07;1.00;;;13.80;58.00;;;;;;5052271;28;20557;-82
2022/07/13 06:06:34;;;;;;;1.03;1.03;;;13.80;57.10;;;;;;5066767;28;20202;-76
2022/07/13 06:09:01;;;;;;;1.10;1.00;;;13.70;57.20;;;;;;5059622;28;20179;-78
2022/07/13 06:11:28;;;;;;;1.27;1.07;;;13.70;58.30;;;;;;5052530;28;20216;-77
2022/07/13 06:13:56;;;;;;;1.63;1.00;;;13.70;58.60;;;;;;5059243;28;20180;-85
2022/07/13 06:16:23;;;;;;;1.00;0.80;;;13.60;58.60;;;;;;5061699;28;20187;-90
2022/07/13 06:18:51;;;;;;;1.40;1.30;;;13.50;59.30;;;;;;5066303;28;20556;-79
2022/07/13 06:21:18;;;;;;;1.53;1.23;;;13.40;59.60;;;;;;5075490;28;20535;-80
2022/07/13 06:23:45;;;;;;;1.13;1.07;;;13.40;59.10;;;;;;5070051;28;20654;-80
2022/07/13 06:26:13;;;;;;;1.50;1.17;;;13.40;59.10;;;;;;5068983;28;20189;-87
2022/07/13 06:28:40;;;;;;;1.10;1.00;;;13.40;58.40;;;;;;5065671;28;20555;-84
2022/07/13 06:31:08;;;;;;;2.30;1.27;;;13.40;58.70;;;;;;5069487;28;20294;-74
2022/07/13 06:33:35;;;;;;;1.90;1.10;;;13.30;59.70;;;;;;5052827;28;20172;-75
2022/07/13 06:36:03;;;;;;;2.13;1.00;;;13.30;59.70;;;;;;5060134;28;20266;-79
2022/07/13 06:38:30;;;;;;;3.80;1.33;;;13.30;60.00;;;;;;5077726;28;20179;-78
2022/07/13 06:40:58;;;;;;;1.87;1.23;;;13.30;60.70;;;;;;5088166;28;20178;-77
2022/07/13 06:43:25;;;;;;;1.33;1.17;;;13.20;60.00;;;;;;5055023;28;20335;-76
2022/07/13 06:45:53;;;;;;;2.70;1.13;;;13.30;59.70;;;;;;5072511;28;20247;-75
2022/07/13 06:48:20;;;;;;;1.40;1.30;;;13.30;59.10;;;;;;5060607;28;20673;-73
2022/07/13 06:50:48;;;;;;;0.90;0.90;;;13.30;59.80;;;;;;5066043;28;20572;-81
2022/07/13 06:53:15;;;;;;;2.80;1.50;;;13.30;59.00;;;;;;5084023;28;20188;-74
2022/07/13 06:55:42;;;;;;;1.30;1.20;;;13.30;58.70;;;;;;5062410;28;20302;-74
2022/07/13 06:58:10;;;;;;;1.20;1.10;;;13.30;58.50;;;;;;5051432;28;20183;-75
2022/07/13 07:00:37;;;;;;;2.63;1.30;;;13.30;58.20;;;;;;5081096;28;20521;-74
2022/07/13 07:03:05;;;;;;;1.30;1.20;;;13.30;58.40;;;;;;5065949;28;20261;-75
2022/07/13 07:05:33;;;;;;;1.30;1.20;;;13.30;58.60;;;;;;5065086;28;20188;-75
2022/07/13 07:08:02;;;;;;;1.40;1.20;;;13.30;58.50;;;;;;5056287;28;20662;-73
2022/07/13 07:10:29;;;;;;;1.83;1.50;;;13.30;59.20;;;;;;5060387;28;20223;-75
2022/07/13 07:12:57;;;;;;;1.27;1.17;;;13.20;59.50;;;;;;5052918;28;20196;-74
2022/07/13 07:15:24;;;;;;;1.53;1.43;;;13.20;59.10;;;;;;5058308;28;20224;-74
2022/07/13 07:17:52;;;;;;;2.37;1.40;;;13.20;59.80;;;;;;5076541;28;20186;-75
2022/07/13 07:20:19;;;;;;;1.37;1.27;;;13.10;60.30;;;;;;5070774;28;20183;-83
2022/07/13 07:22:50;;;;;;;2.07;1.50;;;13.10;59.90;;;;;;5068115;28;20621;-76
2022/07/13 07:25:19;;;;;;;2.27;1.50;;;13.10;60.30;;;;;;5077842;28;20175;-75
2022/07/13 07:27:47;;;;;;;2.43;1.70;;;13.00;60.70;;;;;;5082976;28;20628;-75
2022/07/13 07:30:15;;;;;;;3.10;1.80;;;13.00;60.50;;;;;;5069562;28;20188;-74
2022/07/13 07:32:42;;;;;;;3.17;1.70;;;12.90;60.80;;;;;;5065720;28;20224;-76
2022/07/13 07:35:10;;;;;;;2.77;2.00;;;12.90;60.60;;;;;;5070570;28;20326;-75
2022/07/13 07:37:39;;;;;;;1.70;1.40;;;13.00;60.90;;;;;;5080325;28;20179;-74
2022/07/13 07:40:11;;;;;;;1.63;1.30;;;13.00;60.80;;;;;;5069996;28;20288;-76
2022/07/13 07:42:38;;;;;;;1.30;1.20;;;13.00;60.50;;;;;;5074394;28;20190;-76
2022/07/13 07:45:08;;;;;;;2.07;1.37;;;13.00;60.50;;;;;;5060741;28;20192;-76
2022/07/13 07:47:36;;;;;;;2.40;1.20;;;13.00;60.40;;;;;;5062223;28;20532;-76
2022/07/13 07:50:05;;;;;;;3.67;1.50;;;13.10;60.30;;;;;;5062385;28;20179;-74
2022/07/13 07:52:32;;;;;;;1.63;1.53;;;13.00;60.10;;;;;;5069013;28;20218;-73
2022/07/13 07:55:00;;;;;;;1.87;1.37;;;13.00;60.70;;;;;;5058698;28;20269;-73
2022/07/13 07:57:27;;;;;;;4.17;2.10;;;13.00;60.30;;;;;;5059803;28;20183;-73
2022/07/13 07:59:55;;;;;;;2.83;1.53;;;13.00;61.20;;;;;;5057416;28;20176;-86
2022/07/13 08:02:22;;;;;;;1.50;1.40;;;13.00;61.30;;;;;;5054984;28;20217;-75
2022/07/13 08:04:49;;;;;;;1.50;1.40;;;13.00;60.90;;;;;;5054956;28;20187;-77
2022/07/13 08:07:17;;;;;;;2.60;1.50;;;13.00;60.80;;;;;;5059756;28;20175;-81
2022/07/13 08:09:44;;;;;;;3.13;1.80;;;13.00;60.90;;;;;;5074448;28;20210;-81
2022/07/13 08:12:12;;;;;;;1.90;1.70;;;12.90;62.40;;;;;;5070025;28;20369;-82
2022/07/13 08:14:39;;;;;;;2.37;1.60;;;12.90;62.30;;;;;;5081981;28;20179;-79
2022/07/13 08:17:07;;;;;;;1.53;1.43;;;12.80;63.10;;;;;;5065183;28;20956;-73
2022/07/13 08:19:34;;;;;;;1.50;1.37;;;12.80;63.90;;;;;;5055545;28;20537;-80
2022/07/13 08:22:01;;;;;;;1.63;1.53;;;12.80;65.00;;;;;;5055814;28;20180;-85
2022/07/13 08:24:29;;;;;;;1.83;1.60;;;12.70;66.40;;;;;;5060838;28;20774;-75
2022/07/13 08:26:57;;;;;;;2.43;1.53;;;12.60;68.10;;;;;;5064229;28;20228;-78
2022/07/13 08:29:24;;;;;;;3.10;1.80;;;12.40;67.80;;;;;;5066068;28;20179;-76
2022/07/13 08:31:51;;;;;;;5.40;2.30;;;12.40;68.40;;;;;;5055722;28;20231;-79
2022/07/13 08:39:50;;;;;;;3.40;1.90;;;12.20;71.40;;;;;;5064695;28;20222;-88
2022/07/13 08:42:17;;;;;;;3.70;2.10;;;12.20;72.50;;;;;;5054072;28;20175;-80
2022/07/13 08:44:45;;;;;;;4.37;2.50;;;12.20;72.90;;;;;;5060138;28;20179;-88
2022/07/13 08:47:14;;;;;;;5.03;2.43;;;12.10;72.50;;;;;;5078737;28;20194;-79
2022/07/13 08:49:41;;;;;;;4.60;2.97;;;12.10;72.60;;;;;;5062332;28;20206;-78
2022/07/13 08:52:13;;;;;;;6.70;4.00;;;12.10;71.90;;;;;;5056643;28;20227;-88
2022/07/13 08:54:40;;;;;;;6.73;3.17;;;12.10;72.60;;;;;;5063254;28;20631;-84
2022/07/13 08:57:08;;;;;;;4.90;2.63;;;12.20;72.90;;;;;;5056255;28;20316;-87
2022/07/13 08:59:35;;;;;;;10.43;2.60;;;12.20;72.80;;;;;;5054819;28;20176;-82
2022/07/13 09:02:02;;;;;;;8.23;3.20;;;12.20;71.90;;;;;;5055336;28;20222;-87
2022/07/13 09:04:30;;;;;;;4.93;2.60;;;12.20;71.10;;;;;;5055712;28;20183;-86
2022/07/13 09:06:58;;;;;;;4.13;2.70;;;12.30;71.30;;;;;;5060331;28;20175;-88
2022/07/13 09:09:35;;;;;;;7.13;3.13;;;12.30;71.40;;;;;;5074567;28;20175;-82
2022/07/13 09:12:19;;;;;;;3.27;2.50;;;12.30;71.60;;;;;;5061673;28;20229;-84
2022/07/13 09:15:01;;;;;;;4.20;1.83;;;12.30;71.60;;;;;;5059429;28;20283;-82
2022/07/13 09:17:31;;;;;;;3.80;1.50;;;12.30;71.00;;;;;;5066662;28;20175;-78
2022/07/13 09:20:20;;;;;;;3.60;1.60;;;12.20;69.80;;;;;;5069250;28;20170;-80
2022/07/13 09:22:56;;;;;;;4.13;1.90;;;12.20;70.40;;;;;;5065034;28;20174;-77
2022/07/13 09:25:32;;;;;;;3.20;2.07;;;12.20;71.10;;;;;;5057776;28;20274;-75
2022/07/13 09:28:07;;;;;;;3.10;2.00;;;12.10;70.70;;;;;;5056493;28;20298;-88
2022/07/13 09:30:36;;;;;;;2.53;1.90;;;12.00;72.00;;;;;;5053651;28;20726;-77
2022/07/13 09:33:05;;;;;;;3.20;2.10;;;12.00;72.30;;;;;;5053710;28;20171;-75
2022/07/13 09:35:50;;;;;;;3.00;2.00;;;12.00;73.10;;;;;;5058569;28;20168;-82
2022/07/13 09:38:36;;;;;;;2.90;2.30;;;11.90;74.00;;;;;;5063494;28;20188;-82
2022/07/13 09:41:24;;;;;;;3.97;2.70;;;11.80;74.30;;;;;;5060371;28;20623;-77
2022/07/13 09:46:58;;;;;;;4.43;2.20;;;11.80;75.70;;;;;;5053163;28;20241;-77
2022/07/13 09:49:45;;;;;;;5.57;3.23;;;11.70;76.80;;;;;;5052920;28;20183;-76
2022/07/13 09:52:16;;;;;;;3.63;2.30;;;11.70;77.00;;;;;;5052764;28;20302;-76
2022/07/13 09:54:50;;;;;;;4.10;2.53;;;11.70;78.00;;;;;;5061098;28;20543;-77
2022/07/13 09:57:22;;;;;;;3.27;2.40;;;11.60;79.30;;;;;;5070560;28;20175;-76
2022/07/13 09:59:50;;;;;;;3.53;2.20;;;11.50;79.10;;;;;;5054715;28;20345;-76
2022/07/13 10:02:18;;;;;;;5.03;2.10;;;11.30;79.70;;;;;;5073314;28;20605;-79
2022/07/13 10:04:47;;;;;;;5.40;2.73;;;11.30;79.20;;;;;;5075354;28;20181;-76
2022/07/13 10:07:14;;;;;;;2.87;2.27;;;11.20;80.80;;;;;;5060399;28;20194;-76
2022/07/13 10:09:42;;;;;;;3.87;2.40;;;11.20;81.90;;;;;;5060408;28;20658;-76
2022/07/13 10:12:10;;;;;;;4.77;3.03;;;11.20;82.20;;;;;;5057750;28;20703;-77
2022/07/13 10:14:39;;;;;;;3.63;2.80;;;11.20;83.30;;;;;;5073048;28;20182;-74
2022/07/13 10:17:10;;;;;;;3.50;2.80;;;11.10;83.80;;;;;;5062663;28;20203;-76
2022/07/13 10:19:49;;;;;;;4.60;2.40;;;11.10;83.80;;;;;;5077134;28;20694;-76
2022/07/13 10:22:25;;;;;;;8.90;2.83;;;11.00;84.80;;;;;;5070154;28;20180;-75
2022/07/13 10:24:57;;;;;;;5.63;3.13;;;11.00;84.40;;;;;;5058914;28;20183;-74
2022/07/13 10:27:26;;;;;;;4.43;2.90;;;10.90;84.80;;;;;;5058757;28;20305;-74
2022/07/13 10:29:54;;;;;;;3.97;2.77;;;10.90;85.10;;;;;;5062801;28;20187;-75
2022/07/13 10:32:26;;;;;;;3.67;2.67;;;10.90;85.70;;;;;;5052330;28;20222;-74
2022/07/13 10:34:55;;;;;;;6.07;3.17;;;10.90;85.80;;;;;;5073956;28;20264;-74
2022/07/13 10:37:24;;;;;;;3.43;2.63;;;10.80;85.40;;;;;;5067520;28;20226;-74
2022/07/13 10:40:13;;;;;;;6.03;3.20;;;10.80;85.50;;;;;;5059727;28;20187;-74
2022/07/13 10:43:03;;;;;;;4.93;2.57;;;10.80;85.90;;;;;;5056899;28;20187;-74
2022/07/13 10:45:52;;;;;;;4.37;3.20;;;10.90;86.70;;;;;;5057843;28;20193;-74
2022/07/13 10:48:25;;;;;;;5.37;3.73;;;10.90;87.10;;;;;;5054056;28;20305;-74
2022/07/13 10:50:58;;;;;;;7.60;4.30;;;10.80;87.00;;;;;;5064763;28;20282;-74
2022/07/13 10:53:43;;;;;;;5.70;3.87;;;10.80;87.30;;;;;;5054714;28;20187;-73
2022/07/13 10:56:24;;;;;;;6.57;3.60;;;10.80;87.70;;;;;;5079611;28;20274;-74
2022/07/13 10:58:51;;;;;;;6.07;4.43;;;10.80;87.80;;;;;;5055715;28;20197;-74
2022/07/13 11:01:49;;;;;;;6.07;3.70;;;10.80;88.00;;;;;;5068544;28;20537;-74
2022/07/13 11:04:19;;;;;;;4.33;3.07;;;10.80;88.20;;;;;;5074458;28;20666;-74
2022/07/13 11:07:07;;;;;;;6.93;3.67;;;10.70;88.30;;;;;;5070108;28;20191;-74
2022/07/13 11:09:35;;;;;;;9.50;4.10;;;10.80;88.60;;;;;;5064264;28;20178;-74
2022/07/13 11:12:19;;;;;;;5.67;3.63;;;10.80;88.70;;;;;;5055866;28;20221;-74
2022/07/13 11:14:49;;;;;;;5.23;3.57;;;10.70;89.10;;;;;;5068775;28;20233;-74
2022/07/13 11:17:23;;;;;;;4.60;3.80;;;10.80;89.30;;;;;;5062492;28;20187;-74
2022/07/13 11:19:56;;;;;;;4.93;3.93;;;10.70;89.30;;;;;;5061440;28;20165;-74
2022/07/13 11:25:13;;;;;;;5.90;4.03;;;10.70;89.30;;;;;;5057422;28;20172;-75
2022/07/13 11:25:30;;;;;;;6.00;4.20;;;10.70;89.30;;;;;;5074494;28;20212;-74
2022/07/13 11:28:13;;;;;;;6.67;4.83;;;10.70;89.10;;;;;;5056610;28;20226;-75
2022/07/13 11:30:45;;;;;;;5.37;4.40;;;10.60;89.10;;;;;;5074816;28;20249;-74
2022/07/13 11:33:12;;;;;;;5.77;4.67;;;10.60;88.90;;;;;;5064526;28;20188;-74
2022/07/13 11:35:48;;;;;;;5.40;4.60;;;10.50;88.70;;;;;;5072623;28;20249;-75
2022/07/13 11:38:17;;;;;;;8.83;5.20;;;10.50;88.40;;;;;;5064761;28;20573;-74
2022/07/13 11:40:45;;;;;;;7.10;5.03;;;10.50;88.30;;;;;;5077208;28;20638;-74
2022/07/13 11:43:12;;;;;;;5.43;4.67;;;10.40;88.30;;;;;;5067982;28;20226;-72
2022/07/13 11:45:42;;;;;;;6.70;4.63;;;10.40;88.00;;;;;;5054985;28;20191;-76
2022/07/13 11:48:12;;;;;;;5.83;4.90;;;10.30;87.90;;;;;;5054951;28;20592;-75
2022/07/13 11:50:50;;;;;;;5.07;4.57;;;10.40;87.90;;;;;;5069840;28;20296;-75
2022/07/13 11:53:31;;;;;;;6.37;5.40;;;10.40;87.70;;;;;;5068026;28;20215;-73
2022/07/13 11:56:07;;;;;;;5.80;5.20;;;10.40;87.40;;;;;;5057382;28;20179;-77
2022/07/13 11:58:39;;;;;;;5.13;4.60;;;10.30;87.10;;;;;;5068833;28;20183;-75
2022/07/13 12:01:18;;;;;;;9.00;4.97;;;10.30;86.70;;;;;;5063321;28;20181;-76
2022/07/13 12:03:50;;;;;;;4.40;4.00;;;10.30;86.10;;;;;;5059734;28;20181;-76
2022/07/13 12:06:18;;;;;;;6.60;4.20;;;10.30;85.10;;;;;;5054372;28;20542;-76
2022/07/13 12:08:47;;;;;;;4.83;4.03;;;10.30;84.70;;;;;;5054159;28;20183;-76
2022/07/13 12:11:16;;;;;;;4.53;3.83;;;10.30;84.00;;;;;;5068174;28;20294;-76
2022/07/13 12:13:45;;;;;;;6.30;4.17;;;10.30;83.40;;;;;;5055462;28;20178;-76
2022/07/13 12:16:14;;;;;;;5.93;3.80;;;10.30;83.40;;;;;;5072768;28;20182;-78
2022/07/13 12:19:08;;;;;;;3.60;3.30;;;10.30;83.00;;;;;;5069927;28;20381;-79
2022/07/13 12:21:37;;;;;;;4.30;3.40;;;10.20;82.60;;;;;;5064048;28;20186;-75
2022/07/13 12:24:05;;;;;;;4.30;3.83;;;10.20;82.70;;;;;;5054943;28;20701;-76
2022/07/13 12:26:33;;;;;;;4.40;3.83;;;10.20;81.80;;;;;;5074057;28;20180;-79
2022/07/13 12:29:00;;;;;;;4.70;3.60;;;10.30;81.60;;;;;;5060017;28;20174;-78
2022/07/13 12:31:28;;;;;;;4.33;3.50;;;10.30;81.00;;;;;;5065770;28;20210;-78
2022/07/13 12:33:55;;;;;;;6.23;3.97;;;10.30;80.20;;;;;;5071791;28;20185;-76
2022/07/13 12:36:25;;;;;;;5.50;3.63;;;10.30;81.00;;;;;;5064262;28;20236;-77
2022/07/13 12:39:00;;;;;;;5.73;3.77;;;10.20;80.60;;;;;;5055713;28;20183;-77
2022/07/13 12:41:30;;;;;;;5.10;4.07;;;10.30;80.10;;;;;;5065239;28;20214;-75
2022/07/13 12:44:03;;;;;;;4.13;3.70;;;10.30;79.80;;;;;;5072816;28;20236;-78
2022/07/13 12:46:54;;;;;;;4.33;3.80;;;10.20;79.60;;;;;;5061971;28;20179;-74
2022/07/13 12:49:39;;;;;;;5.03;4.23;;;10.30;79.40;;;;;;5068350;28;20173;-75
2022/07/13 12:52:11;;;;;;;4.60;3.67;;;10.20;78.90;;;;;;5058520;28;20306;-78
2022/07/13 12:54:42;;;;;;;3.90;3.50;;;10.30;78.20;;;;;;5060614;28;20174;-77
2022/07/13 12:57:11;;;;;;;4.23;3.60;;;10.30;76.90;;;;;;5070923;28;20676;-82
2022/07/13 12:59:39;;;;;;;3.80;3.20;;;10.50;76.40;;;;;;5065837;28;20249;-77
2022/07/13 13:02:07;;;;;;;4.67;4.03;;;10.40;76.50;;;;;;5053537;28;20182;-76
2022/07/13 13:04:34;;;;;;;4.80;3.53;;;10.40;76.30;;;;;;5061565;28;20228;-75
2022/07/13 13:07:02;;;;;;;3.80;3.40;;;10.40;76.20;;;;;;5053894;28;20183;-77
2022/07/13 13:09:30;;;;;;;4.67;3.80;;;10.50;75.80;;;;;;5070983;28;20648;-75
2022/07/13 13:11:57;;;;;;;3.60;3.30;;;10.40;76.50;;;;;;5063963;28;20233;-77